sensor_id;sensor_type;location;lat;lon;timestamp;pressure;altitude;pressure_sealevel;temperature;humidity
38630;BME280;24384;51.988;4.644;2023-04-23T00:01:01;100784.56;;;7.47;100.00
38630;BME280;24384;51.988;4.644;2023-04-23T00:03:27;100774.78;;;7.53;100.00
38630;BME280;24384;51.988;4.644;2023-04-23T00:05:55;100783.84;;;7.40;100.00
38630;BME280;24384;51.988;4.644;2023-04-23T00:08:21;100780.38;;;7.38;100.00
38630;BME280;24384;51.988;4.644;2023-04-23T00:10:47;100780.44;;;7.35;100.00
38630;BME280;24384;51.988;4.644;2023-04-23T00:13:12;100781.22;;;7.40;100.00
38630;BME280;24384;51.988;4.644;2023-04-23T00:15:37;100784.78;;;7.36;100.00
38630;BME280;24384;51.988;4.644;2023-04-23T00:18:03;100775.13;;;7.38;100.00
38630;BME280;24384;51.988;4.644;2023-04-23T00:20:28;100768.81;;;7.47;100.00
38630;BME280;24384;51.988;4.644;2023-04-23T00:22:53;100777.72;;;7.40;100.00
38630;BME280;24384;51.988;4.644;2023-04-23T00:25:18;100768.88;;;7.44;100.00
38630;BME280;24384;51.988;4.644;2023-04-23T00:27:43;100768.03;;;7.43;100.00
38630;BME280;24384;51.988;4.644;2023-04-23T00:30:09;100760.81;;;7.53;100.00
38630;BME280;24384;51.988;4.644;2023-04-23T00:32:35;100757.25;;;7.57;100.00
38630;BME280;24384;51.988;4.644;2023-04-23T00:35:01;100757.31;;;7.54;100.00
38630;BME280;24384;51.988;4.644;2023-04-23T00:37:26;100750.22;;;7.58;100.00
38630;BME280;24384;51.988;4.644;2023-04-23T00:39:51;100749.13;;;7.68;100.00
38630;BME280;24384;51.988;4.644;2023-04-23T00:42:16;100740.25;;;7.72;100.00
38630;BME280;24384;51.988;4.644;2023-04-23T00:44:41;100738.84;;;7.59;100.00
38630;BME280;24384;51.988;4.644;2023-04-23T00:47:07;100740.59;;;7.57;100.00
38630;BME280;24384;51.988;4.644;2023-04-23T00:49:33;100735.66;;;7.43;100.00
38630;BME280;24384;51.988;4.644;2023-04-23T00:51:58;100737.44;;;7.42;100.00
38630;BME280;24384;51.988;4.644;2023-04-23T00:54:24;100732.16;;;7.44;100.00
38630;BME280;24384;51.988;4.644;2023-04-23T00:56:49;100729.47;;;7.47;100.00
38630;BME280;24384;51.988;4.644;2023-04-23T00:59:15;100731.06;;;7.54;100.00
38630;BME280;24384;51.988;4.644;2023-04-23T01:01:40;100726.00;;;7.46;100.00
38630;BME280;24384;51.988;4.644;2023-04-23T01:04:06;100727.00;;;7.39;100.00
38630;BME280;24384;51.988;4.644;2023-04-23T01:06:33;100729.41;;;7.50;100.00
38630;BME280;24384;51.988;4.644;2023-04-23T01:08:58;100716.53;;;7.38;100.00
38630;BME280;24384;51.988;4.644;2023-04-23T01:11:25;100718.78;;;7.55;100.00
38630;BME280;24384;51.988;4.644;2023-04-23T01:13:50;100730.25;;;7.50;100.00
38630;BME280;24384;51.988;4.644;2023-04-23T01:16:16;100726.00;;;7.46;100.00
38630;BME280;24384;51.988;4.644;2023-04-23T01:18:41;100720.59;;;7.52;100.00
38630;BME280;24384;51.988;4.644;2023-04-23T01:21:07;100716.06;;;7.59;100.00
38630;BME280;24384;51.988;4.644;2023-04-23T01:23:34;100715.28;;;7.56;100.00
38630;BME280;24384;51.988;4.644;2023-04-23T01:25:59;100709.94;;;7.60;100.00
38630;BME280;24384;51.988;4.644;2023-04-23T01:28:24;100705.59;;;7.58;100.00
38630;BME280;24384;51.988;4.644;2023-04-23T01:30:50;100701.16;;;7.60;100.00
38630;BME280;24384;51.988;4.644;2023-04-23T01:33:15;100703.66;;;7.66;100.00
38630;BME280;24384;51.988;4.644;2023-04-23T01:35:41;100704.56;;;7.65;100.00
38630;BME280;24384;51.988;4.644;2023-04-23T01:38:10;100701.25;;;7.57;100.00
38630;BME280;24384;51.988;4.644;2023-04-23T01:40:36;100695.22;;;7.53;100.00
38630;BME280;24384;51.988;4.644;2023-04-23T01:43:03;100696.06;;;7.53;100.00
38630;BME280;24384;51.988;4.644;2023-04-23T01:45:30;100690.81;;;7.53;100.00
38630;BME280;24384;51.988;4.644;2023-04-23T01:47:55;100696.78;;;7.62;100.00
38630;BME280;24384;51.988;4.644;2023-04-23T01:50:21;100700.31;;;7.59;100.00
38630;BME280;24384;51.988;4.644;2023-04-23T01:52:48;100701.97;;;7.63;100.00
38630;BME280;24384;51.988;4.644;2023-04-23T01:55:14;100692.34;;;7.64;100.00
38630;BME280;24384;51.988;4.644;2023-04-23T01:57:39;100698.28;;;7.70;100.00
38630;BME280;24384;51.988;4.644;2023-04-23T02:00:09;100696.72;;;7.63;100.00
38630;BME280;24384;51.988;4.644;2023-04-23T02:02:35;100700.31;;;7.59;100.00
38630;BME280;24384;51.988;4.644;2023-04-23T02:05:01;100689.78;;;7.61;100.00
38630;BME280;24384;51.988;4.644;2023-04-23T02:07:30;100691.69;;;7.54;100.00
38630;BME280;24384;51.988;4.644;2023-04-23T02:09:56;100694.25;;;7.57;100.00
38630;BME280;24384;51.988;4.644;2023-04-23T02:12:21;100693.34;;;7.58;100.00
38630;BME280;24384;51.988;4.644;2023-04-23T02:14:46;100690.63;;;7.61;100.00
38630;BME280;24384;51.988;4.644;2023-04-23T02:17:11;100677.50;;;7.61;100.00
38630;BME280;24384;51.988;4.644;2023-04-23T02:19:37;100687.16;;;7.61;100.00
38630;BME280;24384;51.988;4.644;2023-04-23T02:22:02;100683.50;;;7.68;100.00
38630;BME280;24384;51.988;4.644;2023-04-23T02:24:27;100679.97;;;7.69;100.00
38630;BME280;24384;51.988;4.644;2023-04-23T02:26:52;100678.16;;;7.73;100.00
38630;BME280;24384;51.988;4.644;2023-04-23T02:29:17;100684.13;;;7.78;100.00
38630;BME280;24384;51.988;4.644;2023-04-23T02:31:42;100680.72;;;7.74;100.00
38630;BME280;24384;51.988;4.644;2023-04-23T02:34:08;100676.44;;;7.70;100.00
38630;BME280;24384;51.988;4.644;2023-04-23T02:36:33;100679.88;;;7.72;100.00
38630;BME280;24384;51.988;4.644;2023-04-23T02:38:58;100684.28;;;7.71;100.00
38630;BME280;24384;51.988;4.644;2023-04-23T02:41:23;100679.84;;;7.74;100.00
38630;BME280;24384;51.988;4.644;2023-04-23T02:43:48;100684.19;;;7.76;100.00
38630;BME280;24384;51.988;4.644;2023-04-23T02:46:15;100684.09;;;7.79;100.00
38630;BME280;24384;51.988;4.644;2023-04-23T02:48:40;100684.91;;;7.81;100.00
38630;BME280;24384;51.988;4.644;2023-04-23T02:51:06;100691.75;;;7.88;100.00
38630;BME280;24384;51.988;4.644;2023-04-23T02:53:33;100687.50;;;7.83;100.00
38630;BME280;24384;51.988;4.644;2023-04-23T02:55:58;100673.25;;;7.93;100.00
38630;BME280;24384;51.988;4.644;2023-04-23T02:58:23;100679.50;;;7.87;100.00
38630;BME280;24384;51.988;4.644;2023-04-23T03:00:48;100674.13;;;7.94;100.00
38630;BME280;24384;51.988;4.644;2023-04-23T03:03:14;100670.44;;;8.01;100.00
38630;BME280;24384;51.988;4.644;2023-04-23T03:05:39;100678.06;;;8.12;100.00
38630;BME280;24384;51.988;4.644;2023-04-23T03:08:04;100672.81;;;8.12;100.00
38630;BME280;24384;51.988;4.644;2023-04-23T03:10:30;100674.53;;;8.13;100.00
38630;BME280;24384;51.988;4.644;2023-04-23T03:12:55;100669.09;;;8.20;100.00
38630;BME280;24384;51.988;4.644;2023-04-23T03:15:20;100663.31;;;8.06;100.00
38630;BME280;24384;51.988;4.644;2023-04-23T03:17:45;100673.03;;;8.02;100.00
38630;BME280;24384;51.988;4.644;2023-04-23T03:20:11;100668.94;;;7.91;100.00
38630;BME280;24384;51.988;4.644;2023-04-23T03:22:36;100661.59;;;8.05;100.00
38630;BME280;24384;51.988;4.644;2023-04-23T03:25:01;100659.09;;;8.00;100.00
38630;BME280;24384;51.988;4.644;2023-04-23T03:27:26;100657.38;;;7.98;100.00
38630;BME280;24384;51.988;4.644;2023-04-23T03:29:51;100658.19;;;8.00;100.00
38630;BME280;24384;51.988;4.644;2023-04-23T03:32:16;100659.13;;;7.99;100.00
38630;BME280;24384;51.988;4.644;2023-04-23T03:34:42;100658.09;;;8.04;100.00
38630;BME280;24384;51.988;4.644;2023-04-23T03:37:07;100655.56;;;8.00;100.00
38630;BME280;24384;51.988;4.644;2023-04-23T03:39:32;100657.28;;;8.02;100.00
38630;BME280;24384;51.988;4.644;2023-04-23T03:41:57;100656.19;;;8.11;100.00
38630;BME280;24384;51.988;4.644;2023-04-23T03:44:22;100646.34;;;8.19;100.00
38630;BME280;24384;51.988;4.644;2023-04-23T03:46:48;100651.75;;;8.13;100.00
38630;BME280;24384;51.988;4.644;2023-04-23T03:49:13;100651.00;;;8.08;100.00
38630;BME280;24384;51.988;4.644;2023-04-23T03:51:38;100653.88;;;7.99;100.00
38630;BME280;24384;51.988;4.644;2023-04-23T03:54:03;100654.72;;;7.99;100.00
38630;BME280;24384;51.988;4.644;2023-04-23T03:56:28;100661.63;;;8.03;100.00
38630;BME280;24384;51.988;4.644;2023-04-23T03:58:53;100652.63;;;8.12;100.00
38630;BME280;24384;51.988;4.644;2023-04-23T04:01:19;100660.47;;;8.14;100.00
38630;BME280;24384;51.988;4.644;2023-04-23T04:03:44;100656.03;;;8.17;100.00
38630;BME280;24384;51.988;4.644;2023-04-23T04:06:09;100651.63;;;8.18;100.00
38630;BME280;24384;51.988;4.644;2023-04-23T04:08:34;100654.44;;;8.10;100.00
38630;BME280;24384;51.988;4.644;2023-04-23T04:10:59;100668.41;;;8.12;100.00
38630;BME280;24384;51.988;4.644;2023-04-23T04:13:25;100660.47;;;8.14;100.00
38630;BME280;24384;51.988;4.644;2023-04-23T04:15:50;100663.03;;;8.17;100.00
38630;BME280;24384;51.988;4.644;2023-04-23T04:18:15;100669.16;;;8.17;100.00
38630;BME280;24384;51.988;4.644;2023-04-23T04:20:40;100659.47;;;8.19;100.00
38630;BME280;24384;51.988;4.644;2023-04-23T04:23:08;100665.72;;;8.14;100.00
38630;BME280;24384;51.988;4.644;2023-04-23T04:25:33;100652.56;;;8.15;100.00
38630;BME280;24384;51.988;4.644;2023-04-23T04:28:03;100653.75;;;8.03;100.00
38630;BME280;24384;51.988;4.644;2023-04-23T04:30:30;100660.81;;;8.00;100.00
38630;BME280;24384;51.988;4.644;2023-04-23T04:32:55;100654.22;;;7.85;100.00
38630;BME280;24384;51.988;4.644;2023-04-23T04:35:20;100655.22;;;7.79;100.00
38630;BME280;24384;51.988;4.644;2023-04-23T04:37:45;100650.81;;;7.80;100.00
38630;BME280;24384;51.988;4.644;2023-04-23T04:40:11;100649.16;;;7.77;100.00
38630;BME280;24384;51.988;4.644;2023-04-23T04:42:36;100653.63;;;7.72;100.00
38630;BME280;24384;51.988;4.644;2023-04-23T04:45:03;100652.06;;;7.65;100.00
38630;BME280;24384;51.988;4.644;2023-04-23T04:47:28;100655.50;;;7.67;100.00
38630;BME280;24384;51.988;4.644;2023-04-23T04:49:53;100654.63;;;7.68;100.00
38630;BME280;24384;51.988;4.644;2023-04-23T04:52:21;100664.25;;;7.67;100.00
38630;BME280;24384;51.988;4.644;2023-04-23T04:54:46;100657.97;;;7.75;100.00
38630;BME280;24384;51.988;4.644;2023-04-23T04:57:11;100651.09;;;7.69;100.00
38630;BME280;24384;51.988;4.644;2023-04-23T04:59:36;100660.69;;;7.70;100.00
38630;BME280;24384;51.988;4.644;2023-04-23T05:02:02;100667.59;;;7.74;100.00
38630;BME280;24384;51.988;4.644;2023-04-23T05:04:27;100662.47;;;7.69;100.00
38630;BME280;24384;51.988;4.644;2023-04-23T05:06:52;100664.97;;;7.74;100.00
38630;BME280;24384;51.988;4.644;2023-04-23T05:09:17;100664.06;;;7.75;100.00
38630;BME280;24384;51.988;4.644;2023-04-23T05:11:42;100664.91;;;7.77;100.00
38630;BME280;24384;51.988;4.644;2023-04-23T05:14:07;100676.88;;;7.87;100.00
38630;BME280;24384;51.988;4.644;2023-04-23T05:16:34;100667.91;;;7.98;100.00
38630;BME280;24384;51.988;4.644;2023-04-23T05:18:59;100666.13;;;7.98;100.00
38630;BME280;24384;51.988;4.644;2023-04-23T05:21:24;100672.09;;;8.05;100.00
38630;BME280;24384;51.988;4.644;2023-04-23T05:23:51;100666.66;;;8.13;100.00
38630;BME280;24384;51.988;4.644;2023-04-23T05:26:17;100660.97;;;8.30;100.00
38630;BME280;24384;51.988;4.644;2023-04-23T05:28:42;100662.66;;;8.31;100.00
38630;BME280;24384;51.988;4.644;2023-04-23T05:31:07;100653.81;;;8.35;100.00
38630;BME280;24384;51.988;4.644;2023-04-23T05:33:32;100651.81;;;8.43;100.00
38630;BME280;24384;51.988;4.644;2023-04-23T05:35:58;100659.63;;;8.48;100.00
38630;BME280;24384;51.988;4.644;2023-04-23T05:38:24;100662.31;;;8.45;100.00
38630;BME280;24384;51.988;4.644;2023-04-23T05:40:49;100667.38;;;8.52;100.00
38630;BME280;24384;51.988;4.644;2023-04-23T05:43:14;100663.34;;;8.72;100.00
38630;BME280;24384;51.988;4.644;2023-04-23T05:45:39;100656.00;;;8.83;100.00
38630;BME280;24384;51.988;4.644;2023-04-23T05:48:04;100655.47;;;8.72;100.00
38630;BME280;24384;51.988;4.644;2023-04-23T05:50:31;100658.81;;;8.77;100.00
38630;BME280;24384;51.988;4.644;2023-04-23T05:52:56;100658.75;;;8.78;100.00
38630;BME280;24384;51.988;4.644;2023-04-23T05:55:23;100653.31;;;8.85;100.00
38630;BME280;24384;51.988;4.644;2023-04-23T05:57:48;100649.84;;;8.84;100.00
38630;BME280;24384;51.988;4.644;2023-04-23T06:00:13;100654.97;;;8.89;100.00
38630;BME280;24384;51.988;4.644;2023-04-23T06:02:39;100643.47;;;8.93;100.00
38630;BME280;24384;51.988;4.644;2023-04-23T06:05:05;100650.28;;;8.99;100.00
38630;BME280;24384;51.988;4.644;2023-04-23T06:07:30;100646.22;;;9.18;100.00
38630;BME280;24384;51.988;4.644;2023-04-23T06:09:56;100647.94;;;9.19;100.00
38630;BME280;24384;51.988;4.644;2023-04-23T06:12:21;100647.53;;;9.33;100.00
38630;BME280;24384;51.988;4.644;2023-04-23T06:14:46;100650.53;;;9.49;100.00
38630;BME280;24384;51.988;4.644;2023-04-23T06:17:11;100645.25;;;9.49;99.80
38630;BME280;24384;51.988;4.644;2023-04-23T06:19:36;100645.34;;;9.46;99.27
38630;BME280;24384;51.988;4.644;2023-04-23T06:22:03;100644.03;;;9.61;98.45
38630;BME280;24384;51.988;4.644;2023-04-23T06:24:29;100641.84;;;9.74;98.35
38630;BME280;24384;51.988;4.644;2023-04-23T06:26:54;100632.47;;;9.92;98.60
38630;BME280;24384;51.988;4.644;2023-04-23T06:29:20;100630.53;;;9.97;97.81
38630;BME280;24384;51.988;4.644;2023-04-23T06:31:45;100630.00;;;10.12;98.19
38630;BME280;24384;51.988;4.644;2023-04-23T06:34:10;100624.53;;;10.18;96.26
38630;BME280;24384;51.988;4.644;2023-04-23T06:36:35;100628.41;;;10.35;95.37
38630;BME280;24384;51.988;4.644;2023-04-23T06:39:00;100616.31;;;10.53;94.48
38630;BME280;24384;51.988;4.644;2023-04-23T06:41:26;100622.91;;;10.65;93.77
38630;BME280;24384;51.988;4.644;2023-04-23T06:43:52;100622.56;;;10.74;93.27
38630;BME280;24384;51.988;4.644;2023-04-23T06:46:17;100623.75;;;10.89;90.99
38630;BME280;24384;51.988;4.644;2023-04-23T06:48:42;100623.69;;;10.90;91.10
38630;BME280;24384;51.988;4.644;2023-04-23T06:51:08;100618.84;;;11.03;91.24
38630;BME280;24384;51.988;4.644;2023-04-23T06:53:35;100619.44;;;11.10;90.94
38630;BME280;24384;51.988;4.644;2023-04-23T06:56:00;100618.94;;;11.00;90.64
38630;BME280;24384;51.988;4.644;2023-04-23T06:58:25;100612.56;;;11.06;90.35
38630;BME280;24384;51.988;4.644;2023-04-23T07:00:56;100616.31;;;11.22;90.79
38630;BME280;24384;51.988;4.644;2023-04-23T07:03:30;100611.09;;;11.43;90.66
38630;BME280;24384;51.988;4.644;2023-04-23T07:05:58;100612.47;;;11.53;91.64
38630;BME280;24384;51.988;4.644;2023-04-23T07:08:24;100607.91;;;11.79;90.87
38630;BME280;24384;51.988;4.644;2023-04-23T07:10:50;100612.44;;;11.75;88.43
38630;BME280;24384;51.988;4.644;2023-04-23T07:13:15;100609.91;;;11.72;89.19
38630;BME280;24384;51.988;4.644;2023-04-23T07:15:41;100607.00;;;11.78;87.80
38630;BME280;24384;51.988;4.644;2023-04-23T07:18:07;100603.81;;;11.92;88.62
38630;BME280;24384;51.988;4.644;2023-04-23T07:20:32;100605.50;;;11.95;87.33
38630;BME280;24384;51.988;4.644;2023-04-23T07:22:59;100606.63;;;12.10;88.96
38630;BME280;24384;51.988;4.644;2023-04-23T07:25:24;100613.88;;;12.05;86.36
38630;BME280;24384;51.988;4.644;2023-04-23T07:27:50;100594.06;;;12.15;85.84
38630;BME280;24384;51.988;4.644;2023-04-23T07:30:17;100596.13;;;12.48;87.54
38630;BME280;24384;51.988;4.644;2023-04-23T07:32:42;100588.69;;;12.37;86.76
38630;BME280;24384;51.988;4.644;2023-04-23T07:35:08;100592.91;;;12.41;85.13
38630;BME280;24384;51.988;4.644;2023-04-23T07:37:34;100592.38;;;12.53;86.43
38630;BME280;24384;51.988;4.644;2023-04-23T07:39:59;100585.94;;;12.59;86.44
38630;BME280;24384;51.988;4.644;2023-04-23T07:42:26;100589.66;;;12.74;84.74
38630;BME280;24384;51.988;4.644;2023-04-23T07:44:52;100586.00;;;12.96;85.83
38630;BME280;24384;51.988;4.644;2023-04-23T07:47:17;100593.66;;;13.02;84.10
38630;BME280;24384;51.988;4.644;2023-04-23T07:49:42;100586.66;;;13.01;83.44
38630;BME280;24384;51.988;4.644;2023-04-23T07:52:07;100581.63;;;13.14;83.07
38630;BME280;24384;51.988;4.644;2023-04-23T07:54:33;100590.28;;;13.17;84.37
38630;BME280;24384;51.988;4.644;2023-04-23T07:56:58;100594.59;;;13.20;83.03
38630;BME280;24384;51.988;4.644;2023-04-23T07:59:23;100586.50;;;13.23;83.23
38630;BME280;24384;51.988;4.644;2023-04-23T08:01:48;100581.03;;;13.45;82.97
38630;BME280;24384;51.988;4.644;2023-04-23T08:04:13;100585.19;;;13.51;83.96
38630;BME280;24384;51.988;4.644;2023-04-23T08:06:39;100578.53;;;13.42;80.41
38630;BME280;24384;51.988;4.644;2023-04-23T08:09:05;100574.81;;;13.46;79.04
38630;BME280;24384;51.988;4.644;2023-04-23T08:11:31;100569.84;;;13.75;80.80
38630;BME280;24384;51.988;4.644;2023-04-23T08:13:56;100565.34;;;13.59;78.93
38630;BME280;24384;51.988;4.644;2023-04-23T08:16:22;100568.59;;;13.65;79.82
38630;BME280;24384;51.988;4.644;2023-04-23T08:18:47;100572.50;;;13.92;79.49
38630;BME280;24384;51.988;4.644;2023-04-23T08:21:12;100569.69;;;13.95;79.13
38630;BME280;24384;51.988;4.644;2023-04-23T08:23:37;100569.75;;;14.11;77.84
38630;BME280;24384;51.988;4.644;2023-04-23T08:26:03;100564.59;;;14.26;77.56
38630;BME280;24384;51.988;4.644;2023-04-23T08:28:28;100578.81;;;14.07;77.60
38630;BME280;24384;51.988;4.644;2023-04-23T08:30:54;100578.25;;;14.01;78.68
38630;BME280;24384;51.988;4.644;2023-04-23T08:33:19;100568.28;;;14.06;77.46
38630;BME280;24384;51.988;4.644;2023-04-23T08:35:45;100570.69;;;14.10;77.03
38630;BME280;24384;51.988;4.644;2023-04-23T08:38:10;100561.03;;;14.43;78.59
38630;BME280;24384;51.988;4.644;2023-04-23T08:40:35;100574.88;;;14.32;75.54
38630;BME280;24384;51.988;4.644;2023-04-23T08:43:02;100560.38;;;14.55;79.51
38630;BME280;24384;51.988;4.644;2023-04-23T08:45:30;100573.44;;;14.76;74.34
38630;BME280;24384;51.988;4.644;2023-04-23T08:47:57;100562.81;;;14.92;75.75
38630;BME280;24384;51.988;4.644;2023-04-23T08:50:23;100570.69;;;14.77;72.58
38630;BME280;24384;51.988;4.644;2023-04-23T08:52:49;100569.34;;;14.86;73.54
38630;BME280;24384;51.988;4.644;2023-04-23T08:55:16;100573.34;;;14.93;75.80
38630;BME280;24384;51.988;4.644;2023-04-23T08:57:42;100565.56;;;14.90;73.76
38630;BME280;24384;51.988;4.644;2023-04-23T09:00:10;100571.13;;;15.33;75.78
38630;BME280;24384;51.988;4.644;2023-04-23T09:02:37;100565.31;;;15.11;74.31
38630;BME280;24384;51.988;4.644;2023-04-23T09:05:05;100563.34;;;14.82;76.46
38630;BME280;24384;51.988;4.644;2023-04-23T09:07:30;100573.72;;;14.54;74.81
38630;BME280;24384;51.988;4.644;2023-04-23T09:09:56;100573.41;;;14.26;75.33
38630;BME280;24384;51.988;4.644;2023-04-23T09:12:22;100569.09;;;14.24;77.14
38630;BME280;24384;51.988;4.644;2023-04-23T09:14:48;100562.25;;;14.53;76.26
38630;BME280;24384;51.988;4.644;2023-04-23T09:17:13;100562.66;;;14.79;73.70
38630;BME280;24384;51.988;4.644;2023-04-23T09:19:39;100551.50;;;15.04;73.25
38630;BME280;24384;51.988;4.644;2023-04-23T09:22:05;100552.03;;;14.95;73.83
38630;BME280;24384;51.988;4.644;2023-04-23T09:24:31;100561.28;;;15.03;72.74
38630;BME280;24384;51.988;4.644;2023-04-23T09:26:58;100557.25;;;14.96;73.50
38630;BME280;24384;51.988;4.644;2023-04-23T09:29:23;100544.06;;;14.95;74.06
38630;BME280;24384;51.988;4.644;2023-04-23T09:31:52;100545.00;;;15.10;72.40
38630;BME280;24384;51.988;4.644;2023-04-23T09:34:18;100545.25;;;15.37;73.10
38630;BME280;24384;51.988;4.644;2023-04-23T09:36:44;100549.56;;;15.54;71.97
38630;BME280;24384;51.988;4.644;2023-04-23T09:39:13;100548.50;;;15.72;73.05
38630;BME280;24384;51.988;4.644;2023-04-23T09:41:38;100554.22;;;15.81;70.82
38630;BME280;24384;51.988;4.644;2023-04-23T09:44:03;100549.03;;;15.93;70.56
38630;BME280;24384;51.988;4.644;2023-04-23T09:46:32;100542.25;;;15.88;68.50
38630;BME280;24384;51.988;4.644;2023-04-23T09:48:59;100541.03;;;15.79;68.98
38630;BME280;24384;51.988;4.644;2023-04-23T09:51:24;100530.44;;;15.63;66.69
38630;BME280;24384;51.988;4.644;2023-04-23T09:53:51;100540.69;;;15.69;67.96
38630;BME280;24384;51.988;4.644;2023-04-23T09:56:18;100551.44;;;15.52;66.58
38630;BME280;24384;51.988;4.644;2023-04-23T09:58:44;100537.59;;;15.47;68.77
38630;BME280;24384;51.988;4.644;2023-04-23T10:01:09;100545.59;;;15.31;68.63
38630;BME280;24384;51.988;4.644;2023-04-23T10:03:34;100527.50;;;15.37;66.66
38630;BME280;24384;51.988;4.644;2023-04-23T10:05:59;100523.13;;;15.67;69.52
38630;BME280;24384;51.988;4.644;2023-04-23T10:08:25;100530.03;;;16.00;69.90
38630;BME280;24384;51.988;4.644;2023-04-23T10:10:52;100527.28;;;16.01;67.89
38630;BME280;24384;51.988;4.644;2023-04-23T10:13:17;100527.25;;;15.56;68.65
38630;BME280;24384;51.988;4.644;2023-04-23T10:15:42;100516.72;;;15.55;70.28
38630;BME280;24384;51.988;4.644;2023-04-23T10:18:10;100520.97;;;15.27;67.89
38630;BME280;24384;51.988;4.644;2023-04-23T10:20:37;100521.41;;;15.35;69.79
38630;BME280;24384;51.988;4.644;2023-04-23T10:23:02;100513.19;;;15.40;69.38
38630;BME280;24384;51.988;4.644;2023-04-23T10:25:29;100508.03;;;15.37;69.02
38630;BME280;24384;51.988;4.644;2023-04-23T10:27:54;100515.06;;;15.68;73.03
38630;BME280;24384;51.988;4.644;2023-04-23T10:30:21;100515.75;;;15.42;66.28
38630;BME280;24384;51.988;4.644;2023-04-23T10:32:47;100513.78;;;15.60;68.94
38630;BME280;24384;51.988;4.644;2023-04-23T10:35:12;100498.47;;;15.49;66.60
38630;BME280;24384;51.988;4.644;2023-04-23T10:37:38;100491.41;;;15.33;66.94
38630;BME280;24384;51.988;4.644;2023-04-23T10:40:05;100491.59;;;15.30;66.36
38630;BME280;24384;51.988;4.644;2023-04-23T10:42:33;100495.44;;;15.40;66.57
38630;BME280;24384;51.988;4.644;2023-04-23T10:44:58;100485.63;;;15.71;68.72
38630;BME280;24384;51.988;4.644;2023-04-23T10:47:23;100478.97;;;15.64;65.91
38630;BME280;24384;51.988;4.644;2023-04-23T10:49:48;100477.16;;;15.65;66.72
38630;BME280;24384;51.988;4.644;2023-04-23T10:52:16;100479.13;;;15.47;66.39
38630;BME280;24384;51.988;4.644;2023-04-23T10:54:47;100470.16;;;15.33;66.16
38630;BME280;24384;51.988;4.644;2023-04-23T10:57:13;100467.66;;;15.30;66.96
38630;BME280;24384;51.988;4.644;2023-04-23T10:59:39;100462.72;;;15.54;66.81
38630;BME280;24384;51.988;4.644;2023-04-23T11:02:09;100462.81;;;15.67;67.21
38630;BME280;24384;51.988;4.644;2023-04-23T11:04:35;100452.22;;;15.82;65.58
38630;BME280;24384;51.988;4.644;2023-04-23T11:07:04;100469.84;;;15.54;64.46
38630;BME280;24384;51.988;4.644;2023-04-23T11:09:37;100467.19;;;15.54;65.60
38630;BME280;24384;51.988;4.644;2023-04-23T11:12:07;100457.09;;;15.45;64.91
38630;BME280;24384;51.988;4.644;2023-04-23T11:14:36;100450.22;;;15.26;64.58
38630;BME280;24384;51.988;4.644;2023-04-23T11:17:05;100446.03;;;15.22;68.25
38630;BME280;24384;51.988;4.644;2023-04-23T11:19:36;100439.50;;;15.28;66.25
38630;BME280;24384;51.988;4.644;2023-04-23T11:24:28;100431.00;;;15.37;67.55
38630;BME280;24384;51.988;4.644;2023-04-23T11:26:54;100427.16;;;15.27;66.88
38630;BME280;24384;51.988;4.644;2023-04-23T11:29:19;100424.66;;;15.54;68.15
38630;BME280;24384;51.988;4.644;2023-04-23T11:31:45;100425.84;;;15.34;65.73
38630;BME280;24384;51.988;4.644;2023-04-23T11:34:10;100428.81;;;15.44;66.17
38630;BME280;24384;51.988;4.644;2023-04-23T11:36:37;100412.50;;;15.50;67.58
38630;BME280;24384;51.988;4.644;2023-04-23T11:39:02;100403.22;;;15.57;65.26
38630;BME280;24384;51.988;4.644;2023-04-23T11:41:28;100407.13;;;15.95;68.51
38630;BME280;24384;51.988;4.644;2023-04-23T11:43:55;100394.09;;;16.04;63.50
38630;BME280;24384;51.988;4.644;2023-04-23T11:46:22;100399.19;;;16.36;65.04
38630;BME280;24384;51.988;4.644;2023-04-23T11:48:47;100390.47;;;16.61;64.42
38630;BME280;24384;51.988;4.644;2023-04-23T11:51:12;100392.22;;;16.75;62.40
38630;BME280;24384;51.988;4.644;2023-04-23T11:53:43;100393.16;;;16.89;61.39
38630;BME280;24384;51.988;4.644;2023-04-23T11:56:09;100374.38;;;16.63;62.90
38630;BME280;24384;51.988;4.644;2023-04-23T11:58:35;100375.53;;;16.59;61.04
38630;BME280;24384;51.988;4.644;2023-04-23T12:01:00;100376.53;;;16.43;62.06
38630;BME280;24384;51.988;4.644;2023-04-23T12:03:26;100374.69;;;16.58;62.81
38630;BME280;24384;51.988;4.644;2023-04-23T12:05:52;100373.53;;;16.90;63.82
38630;BME280;24384;51.988;4.644;2023-04-23T12:08:19;100368.34;;;16.74;60.55
38630;BME280;24384;51.988;4.644;2023-04-23T12:10:51;100358.41;;;16.90;63.38
38630;BME280;24384;51.988;4.644;2023-04-23T12:13:18;100361.19;;;16.89;63.52
38630;BME280;24384;51.988;4.644;2023-04-23T12:15:48;100362.47;;;16.41;60.36
38630;BME280;24384;51.988;4.644;2023-04-23T12:18:14;100360.41;;;16.32;60.62
38630;BME280;24384;51.988;4.644;2023-04-23T12:20:40;100356.13;;;16.29;60.16
38630;BME280;24384;51.988;4.644;2023-04-23T12:23:05;100347.91;;;16.20;62.26
38630;BME280;24384;51.988;4.644;2023-04-23T12:25:34;100348.72;;;16.35;62.18
38630;BME280;24384;51.988;4.644;2023-04-23T12:28:01;100340.22;;;16.15;60.44
38630;BME280;24384;51.988;4.644;2023-04-23T12:30:29;100349.56;;;16.35;60.74
38630;BME280;24384;51.988;4.644;2023-04-23T12:33:01;100336.56;;;16.31;62.05
38630;BME280;24384;51.988;4.644;2023-04-23T12:35:37;100330.19;;;16.33;63.25
38630;BME280;24384;51.988;4.644;2023-04-23T12:38:05;100324.34;;;16.14;64.23
38630;BME280;24384;51.988;4.644;2023-04-23T12:40:32;100334.66;;;15.91;63.49
38630;BME280;24384;51.988;4.644;2023-04-23T12:42:59;100330.38;;;15.60;64.80
38630;BME280;24384;51.988;4.644;2023-04-23T12:45:24;100332.69;;;15.51;63.48